sensor_id;sensor_type;location;lat;lon;timestamp;pressure;altitude;pressure_sealevel;temperature;humidity
63111;BME280;49201;53.426;10.300;2022-09-24T00:01:14;101392.31;;;13.44;87.61
63111;BME280;49201;53.426;10.300;2022-09-24T00:03:41;101396.53;;;13.41;87.97
63111;BME280;49201;53.426;10.300;2022-09-24T00:06:10;101399.09;;;13.41;87.86
63111;BME280;49201;53.426;10.300;2022-09-24T00:08:39;101397.41;;;13.41;88.24
63111;BME280;49201;53.426;10.300;2022-09-24T00:11:05;101397.38;;;13.40;88.24
63111;BME280;49201;53.426;10.300;2022-09-24T00:13:34;101389.66;;;13.40;87.76
63111;BME280;49201;53.426;10.300;2022-09-24T00:16:05;101387.03;;;13.37;88.56
63111;BME280;49201;53.426;10.300;2022-09-24T00:18:32;101387.06;;;13.38;88.94
63111;BME280;49201;53.426;10.300;2022-09-24T00:20:58;101387.84;;;13.34;88.94
63111;BME280;49201;53.426;10.300;2022-09-24T00:23:24;101381.81;;;13.32;89.00
63111;BME280;49201;53.426;10.300;2022-09-24T00:25:49;101375.78;;;13.30;88.96
63111;BME280;49201;53.426;10.300;2022-09-24T00:28:34;101379.19;;;13.29;89.05
63111;BME280;49201;53.426;10.300;2022-09-24T00:31:04;101376.66;;;13.31;88.77
63111;BME280;49201;53.426;10.300;2022-09-24T00:33:31;101381.03;;;13.36;88.09
63111;BME280;49201;53.426;10.300;2022-09-24T00:36:03;101377.50;;;13.30;88.31
63111;BME280;49201;53.426;10.300;2022-09-24T00:38:32;101376.63;;;13.29;88.19
63111;BME280;49201;53.426;10.300;2022-09-24T00:40:59;101370.56;;;13.26;88.21
63111;BME280;49201;53.426;10.300;2022-09-24T00:43:30;101373.13;;;13.26;88.39
63111;BME280;49201;53.426;10.300;2022-09-24T00:49:11;101364.53;;;13.25;88.84
63111;BME280;49201;53.426;10.300;2022-09-24T00:51:38;101373.13;;;13.26;88.21
63111;BME280;49201;53.426;10.300;2022-09-24T00:54:11;101368.84;;;13.26;88.71
63111;BME280;49201;53.426;10.300;2022-09-24T00:56:40;101361.03;;;13.20;89.07
63111;BME280;49201;53.426;10.300;2022-09-24T00:59:08;101365.25;;;13.17;89.58
63111;BME280;49201;53.426;10.300;2022-09-24T01:01:36;101368.69;;;13.16;89.55
63111;BME280;49201;53.426;10.300;2022-09-24T01:04:03;101373.72;;;13.11;89.57
63111;BME280;49201;53.426;10.300;2022-09-24T01:06:29;101382.31;;;13.12;89.62
63111;BME280;49201;53.426;10.300;2022-09-24T01:08:55;101367.78;;;13.14;89.32
63111;BME280;49201;53.426;10.300;2022-09-24T01:16:56;101374.59;;;13.12;88.53
63111;BME280;49201;53.426;10.300;2022-09-24T01:30:07;101362.63;;;13.14;88.79
63111;BME280;49201;53.426;10.300;2022-09-24T01:32:37;101358.34;;;13.13;88.86
63111;BME280;49201;53.426;10.300;2022-09-24T01:35:08;101360.03;;;13.12;88.76
63111;BME280;49201;53.426;10.300;2022-09-24T01:37:39;101354.84;;;13.09;88.91
63111;BME280;49201;53.426;10.300;2022-09-24T01:40:06;101354.75;;;13.05;88.90
63111;BME280;49201;53.426;10.300;2022-09-24T01:42:33;101357.28;;;13.02;88.94
63111;BME280;49201;53.426;10.300;2022-09-24T01:45:01;101358.94;;;13.00;89.09
63111;BME280;49201;53.426;10.300;2022-09-24T01:47:35;101358.06;;;12.98;89.14
63111;BME280;49201;53.426;10.300;2022-09-24T01:50:09;101354.56;;;12.95;89.13
63111;BME280;49201;53.426;10.300;2022-09-24T01:52:49;101352.75;;;12.91;89.48
63111;BME280;49201;53.426;10.300;2022-09-24T01:55:18;101349.38;;;12.94;89.51
63111;BME280;49201;53.426;10.300;2022-09-24T01:57:52;101349.38;;;12.94;89.33
63111;BME280;49201;53.426;10.300;2022-09-24T02:00:20;101347.72;;;12.96;89.64
63111;BME280;49201;53.426;10.300;2022-09-24T02:07:51;101346.00;;;12.95;89.63
63111;BME280;49201;53.426;10.300;2022-09-24T02:10:19;101337.41;;;12.94;89.61
63111;BME280;49201;53.426;10.300;2022-09-24T02:12:52;101340.84;;;12.95;89.96
63111;BME280;49201;53.426;10.300;2022-09-24T02:15:26;101345.22;;;12.98;90.04
63111;BME280;49201;53.426;10.300;2022-09-24T02:17:56;101332.31;;;12.96;89.67
63111;BME280;49201;53.426;10.300;2022-09-24T02:20:25;101338.19;;;12.90;90.11
63111;BME280;49201;53.426;10.300;2022-09-24T02:22:54;101337.34;;;12.90;90.89
63111;BME280;49201;53.426;10.300;2022-09-24T02:25:29;101339.00;;;12.88;90.65
63111;BME280;49201;53.426;10.300;2022-09-24T02:27:57;101345.00;;;12.87;90.63
63111;BME280;49201;53.426;10.300;2022-09-24T02:30:23;101342.41;;;12.87;90.61
63111;BME280;49201;53.426;10.300;2022-09-24T02:32:49;101337.28;;;12.87;90.81
63111;BME280;49201;53.426;10.300;2022-09-24T02:35:15;101341.50;;;12.85;91.02
63111;BME280;49201;53.426;10.300;2022-09-24T02:37:43;101342.41;;;12.87;90.66
63111;BME280;49201;53.426;10.300;2022-09-24T02:40:11;101344.06;;;12.85;90.54
63111;BME280;49201;53.426;10.300;2022-09-24T02:42:37;101343.16;;;12.81;90.65
63111;BME280;49201;53.426;10.300;2022-09-24T02:45:04;101341.44;;;12.80;90.79
63111;BME280;49201;53.426;10.300;2022-09-24T02:47:30;101341.41;;;12.79;90.81
63111;BME280;49201;53.426;10.300;2022-09-24T02:49:56;101338.84;;;12.79;91.32
63111;BME280;49201;53.426;10.300;2022-09-24T02:52:21;101337.09;;;12.78;91.30
63111;BME280;49201;53.426;10.300;2022-09-24T02:54:48;101339.72;;;12.79;91.38
63111;BME280;49201;53.426;10.300;2022-09-24T02:57:16;101328.59;;;12.80;91.21
63111;BME280;49201;53.426;10.300;2022-09-24T02:59:41;101332.00;;;12.79;91.25
63111;BME280;49201;53.426;10.300;2022-09-24T03:02:07;101333.75;;;12.82;91.26
63111;BME280;49201;53.426;10.300;2022-09-24T03:04:32;101333.69;;;12.79;91.32
63111;BME280;49201;53.426;10.300;2022-09-24T03:06:58;101334.47;;;12.75;91.97
63111;BME280;49201;53.426;10.300;2022-09-24T03:09:23;101340.44;;;12.74;91.75
63111;BME280;49201;53.426;10.300;2022-09-24T03:11:49;101343.09;;;12.77;91.65
63111;BME280;49201;53.426;10.300;2022-09-24T03:14:14;101338.78;;;12.76;91.34
63111;BME280;49201;53.426;10.300;2022-09-24T03:16:40;101336.22;;;12.76;91.59
63111;BME280;49201;53.426;10.300;2022-09-24T03:19:06;101335.31;;;12.74;91.65
63111;BME280;49201;53.426;10.300;2022-09-24T03:21:31;101341.34;;;12.74;91.40
63111;BME280;49201;53.426;10.300;2022-09-24T03:23:57;101343.00;;;12.72;91.30
63111;BME280;49201;53.426;10.300;2022-09-24T03:26:24;101340.38;;;12.71;91.47
63111;BME280;49201;53.426;10.300;2022-09-24T03:28:50;101341.19;;;12.68;91.31
63111;BME280;49201;53.426;10.300;2022-09-24T03:31:15;101333.47;;;12.68;91.17
63111;BME280;49201;53.426;10.300;2022-09-24T03:33:44;101336.09;;;12.70;91.17
63111;BME280;49201;53.426;10.300;2022-09-24T03:36:15;101336.97;;;12.70;91.48
63111;BME280;49201;53.426;10.300;2022-09-24T03:38:42;101330.91;;;12.67;91.43
63111;BME280;49201;53.426;10.300;2022-09-24T03:41:09;101328.38;;;12.70;91.64
63111;BME280;49201;53.426;10.300;2022-09-24T03:43:36;101330.09;;;12.69;91.69
63111;BME280;49201;53.426;10.300;2022-09-24T03:46:02;101333.53;;;12.70;91.98
63111;BME280;49201;53.426;10.300;2022-09-24T03:48:29;101328.31;;;12.65;91.81
63111;BME280;49201;53.426;10.300;2022-09-24T03:50:54;101335.09;;;12.63;92.40
63111;BME280;49201;53.426;10.300;2022-09-24T03:53:20;101330.75;;;12.59;93.32
63111;BME280;49201;53.426;10.300;2022-09-24T03:55:54;101324.03;;;12.64;92.62
63111;BME280;49201;53.426;10.300;2022-09-24T03:58:20;101323.13;;;12.64;92.25
63111;BME280;49201;53.426;10.300;2022-09-24T04:00:45;101316.22;;;12.60;92.50
63111;BME280;49201;53.426;10.300;2022-09-24T04:03:11;101311.94;;;12.62;92.41
63111;BME280;49201;53.426;10.300;2022-09-24T04:05:36;101317.13;;;12.63;92.91
63111;BME280;49201;53.426;10.300;2022-09-24T04:08:02;101317.97;;;12.62;92.46
63111;BME280;49201;53.426;10.300;2022-09-24T04:10:29;101316.31;;;12.66;92.96
63111;BME280;49201;53.426;10.300;2022-09-24T04:12:55;101315.50;;;12.67;92.50
63111;BME280;49201;53.426;10.300;2022-09-24T04:15:21;101319.81;;;12.69;92.81
63111;BME280;49201;53.426;10.300;2022-09-24T04:17:56;101317.25;;;12.71;92.35
63111;BME280;49201;53.426;10.300;2022-09-24T04:20:24;101324.09;;;12.69;92.83
63111;BME280;49201;53.426;10.300;2022-09-24T04:22:51;101320.66;;;12.70;92.34
63111;BME280;49201;53.426;10.300;2022-09-24T04:25:18;101317.25;;;12.69;92.42
63111;BME280;49201;53.426;10.300;2022-09-24T04:27:44;101324.97;;;12.69;92.43
63111;BME280;49201;53.426;10.300;2022-09-24T04:30:11;101319.72;;;12.65;93.03
63111;BME280;49201;53.426;10.300;2022-09-24T04:32:38;101318.03;;;12.65;93.02
63111;BME280;49201;53.426;10.300;2022-09-24T04:35:04;101316.31;;;12.66;92.38
63111;BME280;49201;53.426;10.300;2022-09-24T04:37:30;101308.66;;;12.69;92.54
63111;BME280;49201;53.426;10.300;2022-09-24T04:39:55;101315.56;;;12.71;92.54
63111;BME280;49201;53.426;10.300;2022-09-24T04:42:21;101310.34;;;12.68;92.61
63111;BME280;49201;53.426;10.300;2022-09-24T04:44:46;101306.13;;;12.70;91.97
63111;BME280;49201;53.426;10.300;2022-09-24T04:47:15;101309.59;;;12.72;92.59
63111;BME280;49201;53.426;10.300;2022-09-24T04:49:41;101308.75;;;12.72;92.85
63111;BME280;49201;53.426;10.300;2022-09-24T04:52:09;101307.00;;;12.72;92.53
63111;BME280;49201;53.426;10.300;2022-09-24T04:54:34;101300.97;;;12.69;93.06
63111;BME280;49201;53.426;10.300;2022-09-24T04:57:00;101301.81;;;12.68;93.00
63111;BME280;49201;53.426;10.300;2022-09-24T04:59:25;101300.13;;;12.70;92.74
63111;BME280;49201;53.426;10.300;2022-09-24T05:01:51;101301.84;;;12.71;92.98
63111;BME280;49201;53.426;10.300;2022-09-24T05:04:18;101308.69;;;12.70;92.65
63111;BME280;49201;53.426;10.300;2022-09-24T05:06:44;101312.13;;;12.71;92.42
63111;BME280;49201;53.426;10.300;2022-09-24T05:09:09;101305.22;;;12.68;93.18
63111;BME280;49201;53.426;10.300;2022-09-24T05:11:35;101308.63;;;12.67;93.39
63111;BME280;49201;53.426;10.300;2022-09-24T05:14:00;101302.66;;;12.68;93.53
63111;BME280;49201;53.426;10.300;2022-09-24T05:16:26;101312.13;;;12.71;93.26
63111;BME280;49201;53.426;10.300;2022-09-24T05:18:51;101309.56;;;12.71;93.59
63111;BME280;49201;53.426;10.300;2022-09-24T05:21:16;101308.75;;;12.72;93.67
63111;BME280;49201;53.426;10.300;2022-09-24T05:23:42;101305.31;;;12.73;93.25
63111;BME280;49201;53.426;10.300;2022-09-24T05:26:07;101301.97;;;12.77;93.43
63111;BME280;49201;53.426;10.300;2022-09-24T05:28:51;101301.16;;;12.79;93.15
63111;BME280;49201;53.426;10.300;2022-09-24T05:31:17;101306.34;;;12.81;93.72
63111;BME280;49201;53.426;10.300;2022-09-24T05:33:42;101306.31;;;12.79;93.73
63111;BME280;49201;53.426;10.300;2022-09-24T05:36:08;101307.06;;;12.75;94.38
63111;BME280;49201;53.426;10.300;2022-09-24T05:38:34;101314.81;;;12.77;94.09
63111;BME280;49201;53.426;10.300;2022-09-24T05:40:59;101310.56;;;12.79;94.54
63111;BME280;49201;53.426;10.300;2022-09-24T05:43:25;101310.56;;;12.79;94.16
63111;BME280;49201;53.426;10.300;2022-09-24T05:45:52;101302.00;;;12.78;94.67
63111;BME280;49201;53.426;10.300;2022-09-24T05:48:19;101311.44;;;12.79;94.72
63111;BME280;49201;53.426;10.300;2022-09-24T05:50:45;101313.22;;;12.83;94.41
63111;BME280;49201;53.426;10.300;2022-09-24T05:53:11;101311.53;;;12.85;94.59
63111;BME280;49201;53.426;10.300;2022-09-24T05:55:37;101309.84;;;12.86;94.16
63111;BME280;49201;53.426;10.300;2022-09-24T05:58:08;101315.75;;;12.82;94.16
63111;BME280;49201;53.426;10.300;2022-09-24T06:00:34;101313.22;;;12.83;94.71
63111;BME280;49201;53.426;10.300;2022-09-24T06:03:02;101315.84;;;12.86;94.36
63111;BME280;49201;53.426;10.300;2022-09-24T06:05:28;101324.41;;;12.87;94.24
63111;BME280;49201;53.426;10.300;2022-09-24T06:07:53;101316.72;;;12.87;93.85
63111;BME280;49201;53.426;10.300;2022-09-24T06:10:20;101317.66;;;12.92;94.16
63111;BME280;49201;53.426;10.300;2022-09-24T06:12:45;101316.78;;;12.91;94.65
63111;BME280;49201;53.426;10.300;2022-09-24T06:15:11;101321.06;;;12.91;94.39
63111;BME280;49201;53.426;10.300;2022-09-24T06:17:38;101321.91;;;12.90;94.96
63111;BME280;49201;53.426;10.300;2022-09-24T06:20:04;101324.50;;;12.90;95.45
63111;BME280;49201;53.426;10.300;2022-09-24T06:22:29;101323.69;;;12.93;95.24
63111;BME280;49201;53.426;10.300;2022-09-24T06:24:55;101322.06;;;12.98;95.32
63111;BME280;49201;53.426;10.300;2022-09-24T06:27:20;101321.19;;;12.97;95.32
63111;BME280;49201;53.426;10.300;2022-09-24T06:29:46;101322.97;;;13.00;95.41
63111;BME280;49201;53.426;10.300;2022-09-24T06:32:11;101317.81;;;13.00;95.44
63111;BME280;49201;53.426;10.300;2022-09-24T06:34:37;101321.22;;;12.99;95.74
63111;BME280;49201;53.426;10.300;2022-09-24T06:37:03;101323.84;;;13.00;95.97
63111;BME280;49201;53.426;10.300;2022-09-24T06:39:28;101319.53;;;13.01;95.94
63111;BME280;49201;53.426;10.300;2022-09-24T06:41:54;101326.34;;;12.97;96.10
63111;BME280;49201;53.426;10.300;2022-09-24T06:44:20;101326.41;;;13.00;96.56
63111;BME280;49201;53.426;10.300;2022-09-24T06:46:46;101325.50;;;12.98;96.62
63111;BME280;49201;53.426;10.300;2022-09-24T06:49:12;101325.56;;;13.01;96.61
63111;BME280;49201;53.426;10.300;2022-09-24T06:51:38;101330.69;;;13.01;96.81
63111;BME280;49201;53.426;10.300;2022-09-24T06:54:04;101324.69;;;13.01;96.43
63111;BME280;49201;53.426;10.300;2022-09-24T06:56:30;101328.09;;;13.00;96.35
63111;BME280;49201;53.426;10.300;2022-09-24T06:58:55;101334.97;;;12.99;96.90
63111;BME280;49201;53.426;10.300;2022-09-24T07:01:21;101333.22;;;12.98;96.54
63111;BME280;49201;53.426;10.300;2022-09-24T07:03:46;101341.84;;;13.00;96.83
63111;BME280;49201;53.426;10.300;2022-09-24T07:06:12;101336.66;;;12.99;97.34
63111;BME280;49201;53.426;10.300;2022-09-24T07:08:37;101340.97;;;13.00;98.01
63111;BME280;49201;53.426;10.300;2022-09-24T07:11:03;101338.38;;;13.00;97.99
63111;BME280;49201;53.426;10.300;2022-09-24T07:13:29;101344.44;;;13.03;97.77
63111;BME280;49201;53.426;10.300;2022-09-24T07:15:55;101344.44;;;13.03;97.69
63111;BME280;49201;53.426;10.300;2022-09-24T07:18:20;101338.44;;;13.03;97.81
63111;BME280;49201;53.426;10.300;2022-09-24T07:20:53;101334.16;;;13.03;98.18
63111;BME280;49201;53.426;10.300;2022-09-24T07:23:19;101338.50;;;13.07;98.05
63111;BME280;49201;53.426;10.300;2022-09-24T07:25:45;101342.03;;;13.11;97.72
63111;BME280;49201;53.426;10.300;2022-09-24T07:28:13;101337.75;;;13.13;98.08
63111;BME280;49201;53.426;10.300;2022-09-24T07:30:39;101342.97;;;13.16;98.17
63111;BME280;49201;53.426;10.300;2022-09-24T07:33:06;101343.03;;;13.20;98.14
63111;BME280;49201;53.426;10.300;2022-09-24T07:35:32;101344.75;;;13.21;97.88
63111;BME280;49201;53.426;10.300;2022-09-24T07:38:03;101349.91;;;13.21;97.67
63111;BME280;49201;53.426;10.300;2022-09-24T07:40:29;101345.59;;;13.20;98.35
63111;BME280;49201;53.426;10.300;2022-09-24T07:42:56;101342.16;;;13.20;98.24
63111;BME280;49201;53.426;10.300;2022-09-24T07:45:22;101342.28;;;13.26;98.20
63111;BME280;49201;53.426;10.300;2022-09-24T07:47:56;101348.25;;;13.26;98.64
63111;BME280;49201;53.426;10.300;2022-09-24T07:50:22;101346.47;;;13.22;98.25
63111;BME280;49201;53.426;10.300;2022-09-24T07:52:50;101349.03;;;13.22;98.47
63111;BME280;49201;53.426;10.300;2022-09-24T07:55:16;101347.31;;;13.21;98.08
63111;BME280;49201;53.426;10.300;2022-09-24T07:57:50;101350.81;;;13.23;98.45
63111;BME280;49201;53.426;10.300;2022-09-24T08:00:17;101353.38;;;13.23;98.21
63111;BME280;49201;53.426;10.300;2022-09-24T08:02:44;101352.50;;;13.23;98.51
63111;BME280;49201;53.426;10.300;2022-09-24T08:05:09;101355.97;;;13.26;98.36
63111;BME280;49201;53.426;10.300;2022-09-24T08:07:35;101356.84;;;13.27;98.38
63111;BME280;49201;53.426;10.300;2022-09-24T08:10:00;101357.72;;;13.29;98.57
63111;BME280;49201;53.426;10.300;2022-09-24T08:12:26;101359.53;;;13.33;98.07
63111;BME280;49201;53.426;10.300;2022-09-24T08:14:55;101357.88;;;13.38;97.52
63111;BME280;49201;53.426;10.300;2022-09-24T08:17:20;101365.66;;;13.41;97.98
63111;BME280;49201;53.426;10.300;2022-09-24T08:19:46;101371.72;;;13.44;98.57
63111;BME280;49201;53.426;10.300;2022-09-24T08:22:12;101369.03;;;13.37;98.15
63111;BME280;49201;53.426;10.300;2022-09-24T08:24:40;101365.59;;;13.38;98.69
63111;BME280;49201;53.426;10.300;2022-09-24T08:27:06;101365.63;;;13.39;98.29
63111;BME280;49201;53.426;10.300;2022-09-24T08:29:32;101364.84;;;13.43;98.12
63111;BME280;49201;53.426;10.300;2022-09-24T08:31:57;101369.16;;;13.44;98.26
63111;BME280;49201;53.426;10.300;2022-09-24T08:34:23;101363.25;;;13.50;98.39
63111;BME280;49201;53.426;10.300;2022-09-24T08:36:49;101364.22;;;13.56;97.80
63111;BME280;49201;53.426;10.300;2022-09-24T08:39:14;101363.31;;;13.56;97.24
63111;BME280;49201;53.426;10.300;2022-09-24T08:47:41;101367.03;;;13.73;97.37
63111;BME280;49201;53.426;10.300;2022-09-24T08:55:30;101368.19;;;13.93;97.08
63111;BME280;49201;53.426;10.300;2022-09-24T08:58:15;101366.41;;;13.89;96.35
63111;BME280;49201;53.426;10.300;2022-09-24T09:04:03;101368.28;;;13.99;96.23
63111;BME280;49201;53.426;10.300;2022-09-24T09:07:07;101370.84;;;14.00;96.00
63111;BME280;49201;53.426;10.300;2022-09-24T09:12:39;101370.72;;;13.91;95.88
63111;BME280;49201;53.426;10.300;2022-09-24T09:15:18;101381.06;;;13.93;96.13
63111;BME280;49201;53.426;10.300;2022-09-24T09:17:48;101373.31;;;13.93;96.49
63111;BME280;49201;53.426;10.300;2022-09-24T09:20:42;101373.47;;;14.03;96.79
63111;BME280;49201;53.426;10.300;2022-09-24T09:23:24;101381.97;;;13.98;96.80
63111;BME280;49201;53.426;10.300;2022-09-24T09:25:57;101374.13;;;13.87;96.67
63111;BME280;49201;53.426;10.300;2022-09-24T09:28:27;101372.47;;;13.91;96.86
63111;BME280;49201;53.426;10.300;2022-09-24T09:33:50;101381.19;;;14.02;96.85
63111;BME280;49201;53.426;10.300;2022-09-24T09:44:19;101381.25;;;14.05;95.63
63111;BME280;49201;53.426;10.300;2022-09-24T09:46:52;101378.59;;;14.00;95.76
63111;BME280;49201;53.426;10.300;2022-09-24T09:49:18;101379.47;;;14.01;95.75
63111;BME280;49201;53.426;10.300;2022-09-24T09:51:46;101382.91;;;14.03;95.32
63111;BME280;49201;53.426;10.300;2022-09-24T09:54:13;101375.16;;;14.00;96.16
63111;BME280;49201;53.426;10.300;2022-09-24T09:56:44;101376.00;;;13.99;96.01
63111;BME280;49201;53.426;10.300;2022-09-24T10:01:37;101376.88;;;14.01;97.16
63111;BME280;49201;53.426;10.300;2022-09-24T10:04:05;101382.00;;;13.99;96.65
63111;BME280;49201;53.426;10.300;2022-09-24T10:06:45;101372.47;;;13.94;96.89
63111;BME280;49201;53.426;10.300;2022-09-24T10:09:14;101381.91;;;13.92;97.22
63111;BME280;49201;53.426;10.300;2022-09-24T10:11:40;101382.84;;;13.97;97.26
63111;BME280;49201;53.426;10.300;2022-09-24T10:14:11;101383.66;;;13.94;97.18
63111;BME280;49201;53.426;10.300;2022-09-24T10:16:46;101379.31;;;13.90;97.25
63111;BME280;49201;53.426;10.300;2022-09-24T10:19:23;101377.53;;;13.85;97.60
63111;BME280;49201;53.426;10.300;2022-09-24T10:21:49;101377.47;;;13.82;98.32
63111;BME280;49201;53.426;10.300;2022-09-24T10:24:19;101377.50;;;13.83;98.41
63111;BME280;49201;53.426;10.300;2022-09-24T10:26:46;101373.28;;;13.88;98.13
63111;BME280;49201;53.426;10.300;2022-09-24T10:29:24;101371.56;;;13.90;97.71
63111;BME280;49201;53.426;10.300;2022-09-24T10:32:18;101378.38;;;13.85;97.74
63111;BME280;49201;53.426;10.300;2022-09-24T10:34:59;101375.66;;;13.76;97.82
63111;BME280;49201;53.426;10.300;2022-09-24T10:37:25;101384.34;;;13.83;97.79
63111;BME280;49201;53.426;10.300;2022-09-24T10:40:12;101376.69;;;13.86;97.75
63111;BME280;49201;53.426;10.300;2022-09-24T10:42:38;101378.41;;;13.87;97.58
63111;BME280;49201;53.426;10.300;2022-09-24T10:45:09;101369.78;;;13.83;97.71
63111;BME280;49201;53.426;10.300;2022-09-24T10:47:52;101374.91;;;13.82;97.99
63111;BME280;49201;53.426;10.300;2022-09-24T10:50:45;101374.88;;;13.80;98.42
63111;BME280;49201;53.426;10.300;2022-09-24T10:53:30;101373.19;;;13.82;98.26
63111;BME280;49201;53.426;10.300;2022-09-24T10:56:19;101374.94;;;13.85;98.25
63111;BME280;49201;53.426;10.300;2022-09-24T11:02:00;101380.25;;;13.97;97.90
63111;BME280;49201;53.426;10.300;2022-09-24T11:56:40;101362.13;;;14.52;96.34
63111;BME280;49201;53.426;10.300;2022-09-24T12:02:00;101357.00;;;14.53;96.74
63111;BME280;49201;53.426;10.300;2022-09-24T12:05:22;101350.03;;;14.45;96.13
63111;BME280;49201;53.426;10.300;2022-09-24T12:08:00;101354.25;;;14.40;96.64
63111;BME280;49201;53.426;10.300;2022-09-24T12:10:34;101352.56;;;14.42;97.07
63111;BME280;49201;53.426;10.300;2022-09-24T12:13:15;101356.03;;;14.45;96.81
63111;BME280;49201;53.426;10.300;2022-09-24T12:16:05;101359.50;;;14.46;97.19
63111;BME280;49201;53.426;10.300;2022-09-24T12:21:35;101355.25;;;14.51;96.98
63111;BME280;49201;53.426;10.300;2022-09-24T12:24:12;101355.28;;;14.55;96.51
63111;BME280;49201;53.426;10.300;2022-09-24T12:26:42;101353.56;;;14.54;97.20
63111;BME280;49201;53.426;10.300;2022-09-24T12:29:36;101357.09;;;14.62;96.81
63111;BME280;49201;53.426;10.300;2022-09-24T12:35:56;101347.75;;;14.70;97.66
63111;BME280;49201;53.426;10.300;2022-09-24T12:38:32;101351.19;;;14.72;97.58
63111;BME280;49201;53.426;10.300;2022-09-24T12:46:02;101340.97;;;14.80;97.48
63111;BME280;49201;53.426;10.300;2022-09-24T12:48:31;101343.59;;;14.84;97.34
63111;BME280;49201;53.426;10.300;2022-09-24T12:51:00;101342.69;;;14.81;97.57
63111;BME280;49201;53.426;10.300;2022-09-24T12:53:34;101339.34;;;14.88;97.19
63111;BME280;49201;53.426;10.300;2022-09-24T12:56:03;101337.63;;;14.91;97.28
63111;BME280;49201;53.426;10.300;2022-09-24T13:01:28;101337.66;;;14.93;97.56
63111;BME280;49201;53.426;10.300;2022-09-24T13:06:46;101330.81;;;14.98;97.50
63111;BME280;49201;53.426;10.300;2022-09-24T13:09:38;101328.22;;;14.96;96.98
63111;BME280;49201;53.426;10.300;2022-09-24T13:14:40;101331.66;;;14.95;95.07
63111;BME280;49201;53.426;10.300;2022-09-24T13:17:07;101327.31;;;14.91;94.84
63111;BME280;49201;53.426;10.300;2022-09-24T13:19:37;101326.50;;;14.95;95.05
63111;BME280;49201;53.426;10.300;2022-09-24T13:22:04;101329.91;;;14.93;94.55
63111;BME280;49201;53.426;10.300;2022-09-24T13:24:32;101334.31;;;15.03;94.12
63111;BME280;49201;53.426;10.300;2022-09-24T13:27:32;101328.44;;;15.17;94.14
63111;BME280;49201;53.426;10.300;2022-09-24T13:30:18;101330.97;;;15.14;93.05
63111;BME280;49201;53.426;10.300;2022-09-24T13:32:58;101325.03;;;15.23;92.48
63111;BME280;49201;53.426;10.300;2022-09-24T13:35:31;101327.59;;;15.21;91.97
63111;BME280;49201;53.426;10.300;2022-09-24T13:38:06;101330.94;;;15.10;92.04
63111;BME280;49201;53.426;10.300;2022-09-24T13:40:36;101328.28;;;14.99;92.39
63111;BME280;49201;53.426;10.300;2022-09-24T13:43:57;101328.22;;;14.96;91.80
63111;BME280;49201;53.426;10.300;2022-09-24T13:45:57;101321.41;;;15.01;90.95
63111;BME280;49201;53.426;10.300;2022-09-24T13:48:39;101322.34;;;15.09;91.21
63111;BME280;49201;53.426;10.300;2022-09-24T13:51:10;101326.59;;;15.04;90.85
63111;BME280;49201;53.426;10.300;2022-09-24T13:53:48;101328.31;;;15.05;91.28
63111;BME280;49201;53.426;10.300;2022-09-24T13:56:18;101330.06;;;15.05;91.45
63111;BME280;49201;53.426;10.300;2022-09-24T13:58:44;101330.06;;;15.09;92.22
63111;BME280;49201;53.426;10.300;2022-09-24T14:01:10;101332.63;;;15.06;93.05
63111;BME280;49201;53.426;10.300;2022-09-24T14:03:37;101330.94;;;15.08;93.16
63111;BME280;49201;53.426;10.300;2022-09-24T14:06:14;101334.31;;;15.03;93.69
63111;BME280;49201;53.426;10.300;2022-09-24T14:08:45;101331.66;;;14.95;93.61
63111;BME280;49201;53.426;10.300;2022-09-24T14:11:17;101329.09;;;14.97;93.42
63111;BME280;49201;53.426;10.300;2022-09-24T14:13:43;101330.81;;;14.96;93.18
63111;BME280;49201;53.426;10.300;2022-09-24T14:16:19;101323.81;;;14.85;93.16
63111;BME280;49201;53.426;10.300;2022-09-24T14:18:46;101324.72;;;14.87;93.30
63111;BME280;49201;53.426;10.300;2022-09-24T14:21:31;101325.53;;;14.86;93.51
63111;BME280;49201;53.426;10.300;2022-09-24T14:24:28;101319.50;;;14.84;93.10
63111;BME280;49201;53.426;10.300;2022-09-24T14:26:53;101320.41;;;14.84;93.01
63111;BME280;49201;53.426;10.300;2022-09-24T14:31:57;101321.22;;;14.80;93.90
63111;BME280;49201;53.426;10.300;2022-09-24T14:34:32;101316.94;;;14.84;94.15
63111;BME280;49201;53.426;10.300;2022-09-24T14:37:07;101313.53;;;14.86;94.12
63111;BME280;49201;53.426;10.300;2022-09-24T14:39:37;101317.00;;;14.91;94.63
63111;BME280;49201;53.426;10.300;2022-09-24T14:42:09;101315.31;;;14.93;94.79
63111;BME280;49201;53.426;10.300;2022-09-24T14:44:37;101310.16;;;14.93;94.77
63111;BME280;49201;53.426;10.300;2022-09-24T14:47:23;101310.19;;;14.98;94.89
63111;BME280;49201;53.426;10.300;2022-09-24T14:49:49;101313.59;;;14.91;95.21
63111;BME280;49201;53.426;10.300;2022-09-24T14:52:35;101314.34;;;14.82;95.05
63111;BME280;49201;53.426;10.300;2022-09-24T14:55:18;101311.75;;;14.82;95.99
63111;BME280;49201;53.426;10.300;2022-09-24T14:57:46;101307.47;;;14.83;95.89
63111;BME280;49201;53.426;10.300;2022-09-24T15:03:04;101310.03;;;14.80;96.19
63111;BME280;49201;53.426;10.300;2022-09-24T15:05:31;101299.69;;;14.80;96.35
63111;BME280;49201;53.426;10.300;2022-09-24T15:10:52;101303.13;;;14.79;96.40
63111;BME280;49201;53.426;10.300;2022-09-24T15:13:22;101300.59;;;14.83;96.36
63111;BME280;49201;53.426;10.300;2022-09-24T15:16:00;101308.31;;;14.83;96.29